Time;durP1;ratioP1;P1;durP2;ratioP2;P2;SDS_P1;SDS_P2;PMS_P1;PMS_P2;Temp;Humidity;BMP_temperature;BMP_pressure;BME280_temperature;BME280_humidity;BME280_pressure;Samples;Min_cycle;Max_cycle;Signal;HPM_P1;HPM_P2
2024/01/04 00:00:17;;;;;;;94.97;46.80;;;;;;;6.55;100.00;98874.41;5031690;28;20203;-69
2024/01/04 00:02:44;;;;;;;83.40;42.40;;;;;;;6.59;100.00;98878.31;5031784;28;20194;-68
2024/01/04 00:05:11;;;;;;;87.73;41.67;;;;;;;6.60;100.00;98872.84;5031596;28;20255;-69
2024/01/04 00:07:38;;;;;;;82.30;42.10;;;;;;;6.51;100.00;98873.97;5031783;28;20277;-68
2024/01/04 00:10:06;;;;;;;80.50;41.67;;;;;;;6.46;100.00;98876.34;5031600;28;20193;-69
2024/01/04 00:12:33;;;;;;;77.60;40.17;;;;;;;6.42;100.00;98874.25;5031268;28;20723;-69
2024/01/04 00:15:03;;;;;;;83.83;40.77;;;;;;;6.43;100.00;98873.25;5031195;28;20205;-69
2024/01/04 00:17:31;;;;;;;70.57;38.47;;;;;;;6.43;100.00;98866.16;5031236;28;20199;-69
2024/01/04 00:19:57;;;;;;;85.37;41.17;;;;;;;6.37;100.00;98871.34;5031461;28;20270;-69
2024/01/04 00:22:24;;;;;;;115.13;56.63;;;;;;;6.24;100.00;98871.19;5033975;28;20666;-69
2024/01/04 00:24:50;;;;;;;88.90;42.07;;;;;;;6.21;100.00;98864.44;5035340;28;20222;-69
2024/01/04 00:27:17;;;;;;;85.43;41.47;;;;;;;6.01;100.00;98855.50;5035307;28;20251;-69
2024/01/04 00:29:44;;;;;;;94.33;39.33;;;;;;;5.96;100.00;98867.56;5035175;28;20797;-69
2024/01/04 00:32:11;;;;;;;77.53;37.60;;;;;;;6.00;100.00;98869.66;5035313;28;20265;-69
2024/01/04 00:34:39;;;;;;;80.53;37.43;;;;;;;6.06;100.00;98873.38;5035114;28;20225;-69
2024/01/04 00:37:06;;;;;;;111.40;37.03;;;;;;;6.06;100.00;98863.66;5029984;28;20195;-69
2024/01/04 00:39:33;;;;;;;91.33;35.80;;;;;;;6.07;100.00;98881.09;5015432;28;20627;-69
2024/01/04 00:41:59;;;;;;;71.20;36.50;;;;;;;5.99;100.00;98868.03;5015436;28;20194;-69
2024/01/04 00:44:26;;;;;;;70.43;36.07;;;;;;;5.94;100.00;98856.38;5015255;28;20201;-69
2024/01/04 00:46:53;;;;;;;114.10;38.33;;;;;;;5.73;100.00;98868.41;5014894;28;20618;-69
2024/01/04 00:49:19;;;;;;;88.67;39.77;;;;;;;5.66;100.00;98879.88;5014826;28;20194;-69
2024/01/04 00:51:48;;;;;;;94.03;40.90;;;;;;;5.39;100.00;98857.56;5014922;28;20689;-69
2024/01/04 00:54:15;;;;;;;107.87;37.90;;;;;;;5.24;100.00;98848.81;5014619;28;20703;-69
2024/01/04 00:56:41;;;;;;;82.90;36.77;;;;;;;5.37;100.00;98871.91;5014805;28;20256;-69
2024/01/04 00:59:08;;;;;;;75.53;39.37;;;;;;;5.43;100.00;98877.28;5014910;28;20232;-69
2024/01/04 01:01:35;;;;;;;83.83;38.27;;;;;;;5.46;100.00;98882.22;5015109;28;20288;-69
2024/01/04 01:04:02;;;;;;;78.63;38.13;;;;;;;5.46;100.00;98889.28;5021131;28;20197;-70
2024/01/04 01:06:28;;;;;;;102.43;39.43;;;;;;;5.35;100.00;98890.53;5034366;28;20194;-69
2024/01/04 01:08:57;;;;;;;71.50;36.77;;;;;;;5.25;100.00;98895.22;5034319;28;20198;-71
2024/01/04 01:11:23;;;;;;;70.27;35.50;;;;;;;5.23;100.00;98897.22;5034286;28;20657;-70
2024/01/04 01:13:50;;;;;;;78.63;38.30;;;;;;;5.11;100.00;98877.56;5034523;28;20222;-70
2024/01/04 01:16:17;;;;;;;74.47;37.73;;;;;;;5.04;100.00;98870.56;5034054;28;20201;-69
2024/01/04 01:18:43;;;;;;;76.63;36.83;;;;;;;4.95;100.00;98876.88;5034156;28;20729;-69
2024/01/04 01:21:10;;;;;;;59.27;33.40;;;;;;;4.90;100.00;98890.53;5034359;28;20189;-69
2024/01/04 01:23:37;;;;;;;82.83;36.50;;;;;;;4.93;100.00;98884.94;5033926;28;20201;-69
2024/01/04 01:26:05;;;;;;;137.10;36.43;;;;;;;4.87;100.00;98872.47;5033939;28;20201;-68
2024/01/04 01:28:31;;;;;;;98.00;33.40;;;;;;;4.73;100.00;98883.75;5034041;28;20232;-69
2024/01/04 01:31:00;;;;;;;106.60;33.47;;;;;;;4.65;100.00;98868.03;5034146;28;20190;-69
2024/01/04 01:33:27;;;;;;;104.60;31.30;;;;;;;4.54;100.00;98873.66;5033082;28;20315;-68
2024/01/04 01:35:54;;;;;;;60.77;27.03;;;;;;;4.51;100.00;98860.91;5034089;28;20197;-68
2024/01/04 01:38:20;;;;;;;160.53;32.30;;;;;;;4.51;100.00;98873.22;5034132;28;20197;-68
2024/01/04 01:40:47;;;;;;;218.63;32.87;;;;;;;4.40;100.00;98861.28;5033754;28;20676;-68
2024/01/04 01:43:15;;;;;;;102.67;30.70;;;;;;;4.45;100.00;98869.44;5034103;28;20197;-69
2024/01/04 01:45:42;;;;;;;154.83;33.27;;;;;;;4.46;100.00;98871.09;5033680;28;20668;-69
2024/01/04 01:48:09;;;;;;;198.90;35.60;;;;;;;4.47;100.00;98885.06;5033922;28;20262;-69
2024/01/04 01:50:36;;;;;;;235.57;36.40;;;;;;;4.38;100.00;98889.53;5033580;28;20684;-69
2024/01/04 01:53:02;;;;;;;188.80;33.13;;;;;;;4.26;100.00;98890.91;5033946;28;20201;-69
2024/01/04 01:55:30;;;;;;;142.97;30.10;;;;;;;4.14;100.00;98883.56;5033720;28;20851;-70
2024/01/04 01:57:58;;;;;;;160.17;31.43;;;;;;;4.08;100.00;98887.69;5033477;28;20323;-70
2024/01/04 02:00:27;;;;;;;139.03;31.50;;;;;;;4.08;100.00;98876.34;5033304;28;20193;-69
2024/01/04 02:02:55;;;;;;;183.40;31.67;;;;;;;4.00;100.00;98879.84;5033684;28;20197;-70
2024/01/04 02:05:22;;;;;;;168.90;30.57;;;;;;;3.96;100.00;98870.66;5033451;28;20193;-69
2024/01/04 02:07:49;;;;;;;77.03;27.53;;;;;;;3.87;100.00;98840.16;5033524;28;20224;-69
2024/01/04 02:10:16;;;;;;;337.07;37.77;;;;;;;4.05;100.00;98861.75;5033166;28;20200;-69
2024/01/04 02:12:43;;;;;;;105.33;31.17;;;;;;;4.10;100.00;98862.09;5033229;28;20258;-68
2024/01/04 02:15:10;;;;;;;112.60;29.47;;;;;;;4.17;100.00;98855.13;5032965;28;20307;-69
2024/01/04 02:17:39;;;;;;;80.97;28.87;;;;;;;4.23;100.00;98845.75;5033212;28;20244;-68
2024/01/04 02:20:07;;;;;;;59.77;28.37;;;;;;;4.26;100.00;98848.88;5033237;28;20197;-68
2024/01/04 02:22:35;;;;;;;139.27;30.60;;;;;;;4.28;100.00;98852.13;5032964;28;20665;-69
2024/01/04 02:25:04;;;;;;;167.87;32.27;;;;;;;4.10;100.00;98864.72;5033125;28;20251;-69
2024/01/04 02:27:30;;;;;;;128.03;31.57;;;;;;;3.93;100.00;98862.31;5032934;28;20255;-69
2024/01/04 02:29:57;;;;;;;238.80;33.63;;;;;;;3.90;100.00;98867.88;5033032;28;20637;-70
2024/01/04 02:32:24;;;;;;;160.67;31.57;;;;;;;3.76;100.00;98873.84;5033095;28;20193;-69
2024/01/04 02:34:50;;;;;;;146.10;30.20;;;;;;;3.59;100.00;98865.19;5032885;28;20224;-70
2024/01/04 02:37:17;;;;;;;111.90;28.87;;;;;;;3.59;100.00;98883.56;5032932;28;20189;-69
2024/01/04 02:39:44;;;;;;;160.03;31.60;;;;;;;3.50;100.00;98887.19;5032989;28;20197;-70
2024/01/04 02:42:12;;;;;;;151.13;30.20;;;;;;;3.33;100.00;98885.56;5032436;28;20193;-70
2024/01/04 02:44:38;;;;;;;124.97;27.10;;;;;;;3.18;100.00;98897.69;5032860;28;20247;-69
2024/01/04 02:47:05;;;;;;;139.80;29.57;;;;;;;3.01;100.00;98903.09;5032406;28;20196;-70
2024/01/04 02:49:32;;;;;;;167.60;30.60;;;;;;;2.95;100.00;98906.38;5032366;28;20197;-69
2024/01/04 02:51:58;;;;;;;132.43;27.10;;;;;;;2.86;100.00;98908.16;5032633;28;20263;-69
2024/01/04 02:54:25;;;;;;;99.70;25.43;;;;;;;2.81;100.00;98910.44;5032336;28;20562;-70
2024/01/04 02:56:52;;;;;;;96.63;25.67;;;;;;;2.74;100.00;98919.94;5032257;28;21017;-70
2024/01/04 02:59:20;;;;;;;106.00;26.27;;;;;;;2.72;100.00;98924.53;5032531;28;20436;-70
2024/01/04 03:01:48;;;;;;;118.13;26.30;;;;;;;2.68;100.00;98910.09;5032375;28;20440;-69
2024/01/04 03:04:15;;;;;;;108.93;25.73;;;;;;;2.55;100.00;98909.75;5032554;28;20448;-69
2024/01/04 03:06:42;;;;;;;118.20;26.07;;;;;;;2.46;100.00;98913.34;5032424;28;20201;-70
2024/01/04 03:09:09;;;;;;;99.70;27.40;;;;;;;2.29;100.00;98918.66;5032101;28;20505;-70
2024/01/04 03:11:36;;;;;;;104.20;25.43;;;;;;;2.30;100.00;98915.06;5032017;28;20958;-70
2024/01/04 03:14:02;;;;;;;74.93;24.10;;;;;;;2.32;100.00;98918.38;5032320;28;20617;-70
2024/01/04 03:16:30;;;;;;;98.40;25.50;;;;;;;2.28;100.00;98909.97;5031866;28;20951;-70
2024/01/04 03:18:57;;;;;;;107.23;25.37;;;;;;;2.29;100.00;98901.13;5032187;28;20440;-71
2024/01/04 03:21:24;;;;;;;40.00;22.53;;;;;;;2.39;100.00;98885.28;5031764;28;20946;-68
2024/01/04 03:23:52;;;;;;;32.40;21.43;;;;;;;2.52;100.00;98875.16;5032122;28;20447;-68
2024/01/04 03:26:18;;;;;;;98.23;26.33;;;;;;;2.60;100.00;98873.38;5031668;28;20448;-68
2024/01/04 03:28:45;;;;;;;56.70;22.93;;;;;;;2.47;100.00;98864.34;5031745;28;21020;-69
2024/01/04 03:31:12;;;;;;;32.03;20.87;;;;;;;2.54;100.00;98860.94;5031730;28;20428;-69
2024/01/04 03:33:40;;;;;;;50.87;22.20;;;;;;;2.70;100.00;98860.94;5031757;28;21135;-68
2024/01/04 03:36:09;;;;;;;36.73;21.93;;;;;;;2.75;100.00;98863.91;5031855;28;20436;-67
2024/01/04 03:38:35;;;;;;;62.70;21.43;;;;;;;2.84;100.00;98883.91;5014620;28;20441;-68
2024/01/04 03:41:02;;;;;;;31.50;21.50;;;;;;;2.90;100.00;98888.50;5012093;28;20449;-69
2024/01/04 03:43:29;;;;;;;27.53;20.80;;;;;;;2.96;100.00;98880.00;5012204;28;20515;-69
2024/01/04 03:45:55;;;;;;;30.43;21.87;;;;;;;3.02;100.00;98881.94;5012045;28;20532;-70
2024/01/04 03:48:22;;;;;;;27.47;20.80;;;;;;;3.03;100.00;98896.69;5011602;28;20436;-70
2024/01/04 03:50:50;;;;;;;27.23;21.07;;;;;;;3.00;100.00;98886.56;5011697;28;20440;-70
2024/01/04 03:53:17;;;;;;;32.40;20.77;;;;;;;3.01;100.00;98871.63;5011846;28;20432;-67
2024/01/04 03:55:44;;;;;;;28.47;20.80;;;;;;;3.05;100.00;98884.25;5012655;28;20515;-68
2024/01/04 03:58:10;;;;;;;28.50;21.23;;;;;;;3.13;100.00;98873.75;5018817;28;20499;-69
2024/01/04 04:00:36;;;;;;;26.67;21.17;;;;;;;3.18;100.00;98871.47;5018520;28;20440;-68
2024/01/04 04:03:03;;;;;;;29.47;22.70;;;;;;;3.24;100.00;98859.50;5018506;28;20506;-67
2024/01/04 04:05:28;;;;;;;28.53;22.00;;;;;;;3.27;100.00;98861.78;5018265;28;20197;-67
2024/01/04 04:07:56;;;;;;;31.87;23.60;;;;;;;3.28;100.00;98871.28;5018382;28;20507;-68
2024/01/04 04:10:23;;;;;;;29.23;22.00;;;;;;;3.28;100.00;98861.63;5018487;28;20197;-67
2024/01/04 04:12:50;;;;;;;24.53;20.17;;;;;;;3.32;100.00;98855.06;5018445;28;20443;-67
2024/01/04 04:15:17;;;;;;;25.93;20.70;;;;;;;3.22;100.00;98849.16;5018130;28;20927;-68
2024/01/04 04:17:43;;;;;;;23.87;20.10;;;;;;;3.14;100.00;98843.91;5018391;28;20440;-68
2024/01/04 04:20:11;;;;;;;23.33;20.83;;;;;;;3.23;100.00;98845.53;5018386;28;20271;-68
2024/01/04 04:22:38;;;;;;;27.70;21.33;;;;;;;3.26;100.00;98842.59;5018228;28;20448;-68
2024/01/04 04:25:06;;;;;;;25.60;20.73;;;;;;;3.27;100.00;98835.56;5018049;28;20448;-68
2024/01/04 04:27:33;;;;;;;26.37;19.97;;;;;;;3.27;100.00;98825.84;5017919;28;20927;-69
2024/01/04 04:29:59;;;;;;;25.00;20.50;;;;;;;3.30;100.00;98825.53;5018417;28;20559;-68
2024/01/04 04:32:26;;;;;;;21.40;19.03;;;;;;;3.27;100.00;98817.97;5017832;28;20448;-68
2024/01/04 04:34:53;;;;;;;25.17;20.47;;;;;;;3.21;100.00;98808.16;5024091;28;20471;-70
2024/01/04 04:37:20;;;;;;;29.40;23.23;;;;;;;3.09;100.00;98804.25;5037275;28;20882;-71
2024/01/04 04:39:46;;;;;;;53.20;32.40;;;;;;;3.21;100.00;98818.66;5037830;28;20439;-71
2024/01/04 04:42:16;;;;;;;27.67;22.03;;;;;;;3.32;100.00;98820.13;5038151;28;20439;-71
2024/01/04 04:44:43;;;;;;;22.17;18.93;;;;;;;3.44;100.00;98818.78;5037507;28;20439;-70
2024/01/04 04:47:09;;;;;;;27.63;19.67;;;;;;;3.48;100.00;98834.00;5037469;28;20197;-71
2024/01/04 04:49:36;;;;;;;25.50;19.20;;;;;;;3.52;100.00;98837.94;5037841;28;20517;-70
2024/01/04 04:52:03;;;;;;;23.30;19.57;;;;;;;3.55;100.00;98842.06;5037129;28;20193;-72
2024/01/04 04:54:31;;;;;;;32.93;23.57;;;;;;;3.54;100.00;98846.50;5036081;28;20221;-67
2024/01/04 04:56:57;;;;;;;34.37;23.03;;;;;;;3.53;100.00;98860.59;5037407;28;20440;-66
2024/01/04 04:59:26;;;;;;;35.33;23.83;;;;;;;3.58;100.00;98855.66;5037976;28;20501;-66
2024/01/04 05:01:52;;;;;;;32.80;22.67;;;;;;;3.58;100.00;98855.66;5033739;28;20274;-67
2024/01/04 05:04:19;;;;;;;34.73;24.33;;;;;;;3.52;100.00;98874.69;5037514;28;20865;-67
2024/01/04 05:06:46;;;;;;;35.00;24.73;;;;;;;3.44;100.00;98866.84;5037360;28;20259;-67
2024/01/04 05:09:12;;;;;;;36.03;25.87;;;;;;;3.41;100.00;98871.59;5032607;28;20193;-67
2024/01/04 05:11:39;;;;;;;39.67;29.43;;;;;;;3.40;100.00;98876.06;5033711;28;20279;-67
2024/01/04 05:14:06;;;;;;;41.07;27.67;;;;;;;3.33;100.00;98877.69;5033857;28;20452;-67
2024/01/04 05:16:34;;;;;;;34.30;24.43;;;;;;;3.18;100.00;98865.41;5033882;28;20447;-67
2024/01/04 05:19:00;;;;;;;29.57;21.70;;;;;;;3.00;100.00;98870.81;5033900;28;20440;-67
2024/01/04 05:21:33;;;;;;;30.37;21.50;;;;;;;3.06;100.00;98864.91;5033147;28;20513;-68
2024/01/04 05:24:00;;;;;;;39.13;27.23;;;;;;;3.15;100.00;98865.72;5033627;28;20193;-67
2024/01/04 05:26:27;;;;;;;39.03;31.93;;;;;;;3.12;100.00;98853.78;5033989;28;20494;-67
2024/01/04 05:28:53;;;;;;;36.67;27.30;;;;;;;3.02;100.00;98841.81;5033330;28;20550;-67
2024/01/04 05:31:20;;;;;;;34.20;26.03;;;;;;;3.10;100.00;98863.59;5033736;28;20443;-66
2024/01/04 05:33:48;;;;;;;32.60;23.80;;;;;;;2.94;100.00;98868.84;5033584;28;20443;-67
2024/01/04 05:36:15;;;;;;;33.03;24.83;;;;;;;3.06;100.00;98878.03;5033751;28;20537;-67
2024/01/04 05:38:42;;;;;;;36.73;26.30;;;;;;;3.14;100.00;98885.88;5032995;28;20478;-67
2024/01/04 05:41:09;;;;;;;37.67;27.23;;;;;;;3.10;100.00;98884.56;5033328;28;20448;-66
2024/01/04 05:43:35;;;;;;;35.93;25.90;;;;;;;3.15;100.00;98884.91;5033218;28;20502;-66
2024/01/04 05:46:04;;;;;;;39.00;25.33;;;;;;;3.20;100.00;98872.13;5033362;28;20201;-64
2024/01/04 05:48:30;;;;;;;30.83;24.10;;;;;;;3.23;100.00;98869.16;5032835;28;20618;-65
2024/01/04 05:50:59;;;;;;;33.07;23.07;;;;;;;3.28;100.00;98866.88;5032944;28;20944;-68
2024/01/04 05:53:26;;;;;;;32.03;23.17;;;;;;;3.32;100.00;98873.44;5033163;28;20439;-65
2024/01/04 05:55:53;;;;;;;31.77;22.93;;;;;;;3.36;100.00;98872.13;5032890;28;20479;-66
2024/01/04 05:58:19;;;;;;;37.33;25.47;;;;;;;3.40;100.00;98876.06;5032946;28;20189;-64
2024/01/04 06:00:47;;;;;;;31.07;23.20;;;;;;;3.43;100.00;98870.44;5033122;28;20852;-64
2024/01/04 06:03:14;;;;;;;30.67;23.37;;;;;;;3.34;100.00;98887.19;5032768;28;20209;-66
2024/01/04 06:05:40;;;;;;;27.93;21.90;;;;;;;3.33;100.00;98875.06;5029493;28;20470;-65
2024/01/04 06:08:09;;;;;;;31.47;21.40;;;;;;;3.43;100.00;98880.94;5012921;28;20449;-65
2024/01/04 06:10:35;;;;;;;24.93;21.17;;;;;;;3.55;100.00;98879.63;5021224;28;21017;-65
2024/01/04 06:13:02;;;;;;;32.80;23.73;;;;;;;3.61;100.00;98873.72;5032709;28;20201;-64
2024/01/04 06:15:29;;;;;;;30.40;24.10;;;;;;;3.72;100.00;98881.22;5032740;28;20259;-65
2024/01/04 06:17:55;;;;;;;39.20;27.93;;;;;;;3.66;100.00;98887.16;5032444;28;20283;-66
2024/01/04 06:20:22;;;;;;;111.13;50.33;;;;;;;3.61;100.00;98899.97;5032429;28;20204;-65
2024/01/04 06:22:50;;;;;;;110.00;50.37;;;;;;;3.77;100.00;98899.94;5032088;28;20255;-66
2024/01/04 06:25:18;;;;;;;86.73;43.47;;;;;;;3.93;100.00;98893.81;5032686;28;20538;-65
2024/01/04 06:27:45;;;;;;;82.90;43.97;;;;;;;4.08;100.00;98876.34;5032291;28;20231;-65
2024/01/04 06:30:12;;;;;;;47.63;31.40;;;;;;;4.46;100.00;98876.34;5029079;28;20246;-65
2024/01/04 06:32:39;;;;;;;55.93;35.10;;;;;;;4.90;100.00;98871.34;5032562;28;20192;-64
2024/01/04 06:35:06;;;;;;;44.17;31.73;;;;;;;5.42;100.00;98880.94;5032246;28;20267;-63
2024/01/04 06:37:32;;;;;;;46.87;30.77;;;;;;;5.78;100.00;98892.44;5032124;28;20248;-66
2024/01/04 06:39:59;;;;;;;37.87;29.93;;;;;;;6.25;100.00;98880.75;5032137;28;20193;-66
2024/01/04 06:42:27;;;;;;;50.83;37.97;;;;;;;6.69;100.00;98870.94;5032185;28;20236;-67
2024/01/04 06:44:54;;;;;;;53.43;38.27;;;;;;;6.88;96.74;98880.84;5032341;28;20202;-68
2024/01/04 06:47:20;;;;;;;43.73;32.37;;;;;;;6.99;93.41;98877.72;5032022;28;20200;-67
2024/01/04 06:49:47;;;;;;;38.80;30.33;;;;;;;7.13;94.29;98868.91;5032064;28;20619;-67
2024/01/04 06:52:14;;;;;;;36.80;29.63;;;;;;;7.37;92.43;98865.88;5032065;28;20201;-69
2024/01/04 06:54:41;;;;;;;36.50;27.93;;;;;;;7.60;92.69;98871.75;5030762;28;20433;-68
2024/01/04 06:57:07;;;;;;;33.83;26.40;;;;;;;7.92;92.79;98873.81;5031873;28;20255;-70
2024/01/04 06:59:36;;;;;;;33.57;26.20;;;;;;;8.13;89.56;98884.31;5031633;28;20197;-69
2024/01/04 07:02:04;;;;;;;41.43;27.93;;;;;;;8.42;90.46;98887.53;5031374;28;20193;-69
2024/01/04 07:04:31;;;;;;;45.17;29.20;;;;;;;8.55;85.90;98900.84;5031855;28;20205;-68
2024/01/04 07:06:58;;;;;;;36.10;27.33;;;;;;;8.51;85.13;98898.78;5032017;28;20201;-69
2024/01/04 07:09:24;;;;;;;36.20;23.33;;;;;;;8.44;86.72;98887.34;5032049;28;20197;-69
2024/01/04 07:11:52;;;;;;;34.17;25.03;;;;;;;8.75;88.05;98880.56;5030903;28;20208;-69
2024/01/04 07:14:18;;;;;;;29.43;23.20;;;;;;;9.07;86.15;98886.94;5031932;28;20193;-68
2024/01/04 07:16:49;;;;;;;29.80;22.67;;;;;;;9.44;85.77;98881.06;5031478;28;20704;-76
2024/01/04 07:19:15;;;;;;;24.90;21.60;;;;;;;9.79;84.46;98878.00;5031742;28;20188;-69
2024/01/04 07:21:42;;;;;;;27.27;21.53;;;;;;;10.09;82.40;98886.34;5031583;28;20251;-67
2024/01/04 07:24:09;;;;;;;27.60;22.87;;;;;;;10.30;81.18;98892.19;5030995;28;20203;-68
2024/01/04 07:26:36;;;;;;;38.07;27.67;;;;;;;10.42;80.62;98893.16;5031336;28;20739;-67
2024/01/04 07:29:04;;;;;;;49.73;35.07;;;;;;;10.61;80.05;98897.59;5031158;28;20290;-68
2024/01/04 07:31:31;;;;;;;69.63;45.33;;;;;;;10.65;79.63;98882.06;5030618;28;20190;-67
2024/01/04 07:33:59;;;;;;;66.50;42.77;;;;;;;10.62;79.57;98880.63;5031313;28;20247;-69
2024/01/04 07:36:26;;;;;;;45.13;32.33;;;;;;;10.44;80.89;98869.91;5029811;28;20225;-67
2024/01/04 07:38:52;;;;;;;37.57;28.33;;;;;;;10.45;83.49;98854.78;5030876;28;20669;-67
2024/01/04 07:41:19;;;;;;;35.33;27.30;;;;;;;10.77;81.31;98859.13;5030554;28;20656;-68
2024/01/04 07:43:47;;;;;;;28.43;22.53;;;;;;;11.17;79.91;98865.81;5030997;28;20201;-66
2024/01/04 07:46:14;;;;;;;38.20;26.73;;;;;;;11.24;77.77;98871.91;5031155;28;20256;-65
2024/01/04 07:48:41;;;;;;;32.20;23.93;;;;;;;11.28;78.41;98883.75;5031020;28;20281;-66
2024/01/04 07:51:09;;;;;;;31.43;24.77;;;;;;;11.45;77.95;98868.91;5030888;28;20202;-65
2024/01/04 07:53:36;;;;;;;34.07;24.47;;;;;;;11.71;76.50;98867.91;5030829;28;20257;-66
2024/01/04 07:56:02;;;;;;;29.53;24.37;;;;;;;11.82;76.44;98853.88;5030588;28;20716;-65
2024/01/04 07:58:30;;;;;;;34.40;25.67;;;;;;;12.00;75.69;98864.56;5031120;28;20253;-67
2024/01/04 08:00:57;;;;;;;29.37;24.10;;;;;;;11.99;74.77;98870.88;5030096;28;20207;-66
2024/01/04 08:03:23;;;;;;;26.20;23.33;;;;;;;11.62;75.50;98846.06;5030757;28;20274;-66
2024/01/04 08:05:50;;;;;;;29.83;24.37;;;;;;;11.48;77.82;98839.22;5030500;28;20564;-66
2024/01/04 08:08:18;;;;;;;31.47;24.07;;;;;;;11.47;76.04;98840.22;5030834;28;20199;-69
2024/01/04 08:10:45;;;;;;;28.60;23.20;;;;;;;11.47;76.64;98834.91;5030410;28;20196;-68
2024/01/04 08:13:12;;;;;;;30.60;26.27;;;;;;;11.40;75.98;98836.00;5030450;28;20256;-66
2024/01/04 08:15:38;;;;;;;31.17;25.07;;;;;;;11.13;77.11;98843.38;5031056;28;20661;-67
2024/01/04 08:18:05;;;;;;;32.13;24.57;;;;;;;10.88;79.22;98840.69;5031258;28;20255;-68
2024/01/04 08:20:32;;;;;;;33.23;24.90;;;;;;;10.90;78.56;98848.41;5030944;28;20198;-68
2024/01/04 08:22:59;;;;;;;33.97;24.10;;;;;;;10.96;79.11;98851.03;5030864;28;20193;-68
2024/01/04 08:25:28;;;;;;;32.03;24.00;;;;;;;10.97;78.38;98849.19;5030690;28;20248;-68
2024/01/04 08:27:55;;;;;;;33.10;25.63;;;;;;;11.13;78.20;98847.84;5010917;28;20226;-68
2024/01/04 08:30:22;;;;;;;42.87;33.43;;;;;;;11.36;77.70;98837.47;5011263;28;20319;-68
2024/01/04 08:32:49;;;;;;;42.80;32.63;;;;;;;11.74;78.23;98835.53;5029079;28;20661;-68
2024/01/04 08:35:17;;;;;;;40.17;31.13;;;;;;;12.16;76.25;98851.47;5030175;28;20663;-67
2024/01/04 08:37:45;;;;;;;37.40;29.63;;;;;;;12.53;74.81;98853.06;5035896;28;20227;-67
2024/01/04 08:40:12;;;;;;;35.43;28.10;;;;;;;12.63;74.20;98844.56;5030229;28;20201;-67
2024/01/04 08:42:40;;;;;;;32.30;26.80;;;;;;;12.57;74.23;98827.59;5032046;28;20200;-67
2024/01/04 08:45:08;;;;;;;34.00;24.87;;;;;;;12.64;75.82;98817.69;5034905;28;20228;-69
2024/01/04 08:47:35;;;;;;;34.00;27.30;;;;;;;13.04;71.78;98813.47;5034355;28;20201;-67
2024/01/04 08:50:02;;;;;;;39.73;28.00;;;;;;;13.50;71.85;98813.53;5034167;28;20209;-67
2024/01/04 08:52:29;;;;;;;36.80;27.67;;;;;;;13.84;69.55;98817.25;5033939;28;20868;-66
2024/01/04 08:54:55;;;;;;;35.83;25.63;;;;;;;13.90;67.83;98794.94;5034322;28;20267;-66
2024/01/04 08:57:22;;;;;;;33.97;26.00;;;;;;;14.11;67.26;98803.16;5034007;28;20221;-66
2024/01/04 08:59:51;;;;;;;36.07;27.10;;;;;;;14.09;67.25;98786.56;5033998;28;20738;-66
2024/01/04 09:02:18;;;;;;;31.73;25.23;;;;;;;13.83;66.16;98765.72;5033909;28;20266;-65
2024/01/04 09:04:45;;;;;;;31.77;24.63;;;;;;;13.89;68.36;98780.78;5034248;28;20197;-65
2024/01/04 09:07:12;;;;;;;31.70;24.20;;;;;;;13.81;67.87;98783.81;5033958;28;20205;-65
2024/01/04 09:09:40;;;;;;;44.10;25.77;;;;;;;13.50;70.50;98776.19;5033053;28;20209;-66
2024/01/04 09:12:07;;;;;;;29.30;23.47;;;;;;;13.39;70.47;98776.19;5033530;28;20194;-66
2024/01/04 09:14:33;;;;;;;30.17;23.03;;;;;;;13.30;70.14;98786.38;5033907;28;20190;-66
2024/01/04 09:17:01;;;;;;;33.33;24.80;;;;;;;13.19;70.50;98776.50;5033693;28;20213;-65
2024/01/04 09:19:28;;;;;;;30.87;24.37;;;;;;;13.34;71.14;98792.03;5033570;28;20584;-67
2024/01/04 09:21:55;;;;;;;28.67;24.27;;;;;;;13.42;71.18;98799.72;5033189;28;20194;-66
2024/01/04 09:24:22;;;;;;;29.23;23.10;;;;;;;13.48;71.05;98814.81;5033335;28;20197;-66
2024/01/04 09:26:50;;;;;;;25.50;20.80;;;;;;;13.39;71.88;98806.31;5029062;28;20700;-66
2024/01/04 09:29:17;;;;;;;26.67;21.23;;;;;;;13.29;71.95;98800.75;5014204;28;20233;-66
2024/01/04 09:31:44;;;;;;;28.50;21.00;;;;;;;13.27;72.18;98797.50;5023148;28;20189;-67
2024/01/04 09:34:12;;;;;;;20.90;17.13;;;;;;;13.21;72.74;98790.41;5033444;28;20193;-67
2024/01/04 09:36:39;;;;;;;21.53;17.23;;;;;;;13.22;73.02;98786.72;5031997;28;20213;-66
2024/01/04 09:39:07;;;;;;;18.67;14.93;;;;;;;13.12;74.49;98775.81;5032541;28;20715;-61
2024/01/04 09:41:36;;;;;;;21.20;17.53;;;;;;;13.36;75.22;98768.63;5032795;28;20189;-64
2024/01/04 09:44:04;;;;;;;24.10;17.93;;;;;;;13.33;72.01;98775.25;5033366;28;20228;-64
2024/01/04 09:46:34;;;;;;;19.23;17.27;;;;;;;13.17;73.45;98756.44;5033161;28;20193;-67
2024/01/04 09:49:00;;;;;;;21.63;17.37;;;;;;;13.13;73.90;98748.09;5033080;28;20673;-64
2024/01/04 09:51:32;;;;;;;20.60;17.97;;;;;;;13.04;74.42;98738.81;5029704;28;20204;-66
2024/01/04 09:53:59;;;;;;;20.27;18.17;;;;;;;12.91;74.21;98738.19;5032772;28;20658;-65
2024/01/04 09:56:27;;;;;;;19.57;17.33;;;;;;;12.65;75.21;98736.72;5032949;28;20236;-65
2024/01/04 09:58:54;;;;;;;20.17;17.57;;;;;;;12.31;76.95;98721.44;5032715;28;20731;-66
2024/01/04 10:01:24;;;;;;;21.07;18.03;;;;;;;12.04;77.64;98714.03;5032327;28;20200;-65
2024/01/04 10:03:54;;;;;;;22.80;18.23;;;;;;;11.78;77.96;98704.50;5029538;28;20345;-65
2024/01/04 10:06:25;;;;;;;23.90;21.23;;;;;;;11.60;78.57;98704.50;5028442;28;20284;-65
2024/01/04 10:09:14;;;;;;;22.20;17.63;;;;;;;11.53;80.58;98695.75;5031370;28;20271;-67
2024/01/04 10:11:50;;;;;;;21.13;17.00;;;;;;;11.55;80.71;98688.34;5016735;28;20296;-66
2024/01/04 10:14:17;;;;;;;16.53;14.77;;;;;;;11.66;81.00;98677.03;5031879;28;20240;-67
2024/01/04 10:16:46;;;;;;;19.73;13.77;;;;;;;11.71;79.67;98681.69;5031682;28;20243;-67
2024/01/04 10:19:12;;;;;;;17.57;12.73;;;;;;;11.49;79.53;98667.97;5032745;28;20575;-66
2024/01/04 10:21:39;;;;;;;15.97;12.70;;;;;;;11.39;79.58;98670.31;5032203;28;20671;-65
2024/01/04 10:24:10;;;;;;;18.43;12.83;;;;;;;11.22;80.09;98661.31;5032690;28;20265;-66
2024/01/04 10:26:37;;;;;;;16.73;12.77;;;;;;;11.26;80.79;98638.56;5023415;28;20199;-67
2024/01/04 10:29:03;;;;;;;21.40;15.90;;;;;;;11.42;80.27;98639.81;5032518;28;20227;-65
2024/01/04 10:31:30;;;;;;;15.83;12.93;;;;;;;11.54;80.61;98641.53;5032011;28;20242;-65
2024/01/04 10:33:57;;;;;;;12.37;11.00;;;;;;;11.71;79.07;98637.25;5031975;28;20196;-65
2024/01/04 10:36:28;;;;;;;69.43;40.77;;;;;;;12.53;100.00;98602.69;5031748;28;20270;-73
2024/01/04 10:38:56;;;;;;;20.13;14.63;;;;;;;13.24;89.65;98629.94;5012451;28;20248;-72
2024/01/04 10:41:24;;;;;;;26.00;18.30;;;;;;;13.83;90.73;98602.88;5012272;28;20256;-70
2024/01/04 10:43:50;;;;;;;21.83;15.93;;;;;;;14.38;76.01;98625.28;5012254;28;20252;-72
2024/01/04 10:46:17;;;;;;;29.50;18.47;;;;;;;15.18;82.08;98613.16;5012317;28;20747;-71
2024/01/04 10:48:46;;;;;;;17.47;14.17;;;;;;;15.66;70.63;98633.91;5030794;28;20292;-72
2024/01/04 10:51:14;;;;;;;18.67;13.93;;;;;;;15.94;70.36;98607.72;5031298;28;20193;-70
2024/01/04 10:53:42;;;;;;;36.30;21.93;;;;;;;16.43;73.22;98597.78;5031871;28;20197;-64
2024/01/04 10:56:09;;;;;;;12.33;9.80;;;;;;;16.60;60.44;98619.09;5031446;28;20739;-65
2024/01/04 10:58:37;;;;;;;14.53;10.43;;;;;;;16.45;59.40;98617.09;5031429;28;20661;-65
2024/01/04 11:01:04;;;;;;;10.60;9.60;;;;;;;16.18;58.84;98626.19;5031458;28;20300;-65
2024/01/04 11:03:32;;;;;;;10.40;9.40;;;;;;;16.04;59.67;98614.25;5031699;28;20201;-65
2024/01/04 11:06:00;;;;;;;12.67;8.57;;;;;;;15.86;59.38;98597.44;5029606;28;20259;-65
2024/01/04 11:08:27;;;;;;;8.70;7.50;;;;;;;15.68;59.68;98611.16;5030717;28;20259;-65
2024/01/04 11:10:55;;;;;;;10.57;8.07;;;;;;;15.51;59.98;98598.91;5030688;28;20248;-66
2024/01/04 11:13:21;;;;;;;8.17;7.47;;;;;;;15.41;59.36;98604.94;5030815;28;20197;-63
2024/01/04 11:15:52;;;;;;;8.23;7.37;;;;;;;15.40;59.78;98591.84;5029891;28;20255;-63